Weather at Bay d'Espoir Airport [CLOSED]

Public forecast

Using degrees Celsius for public forecast. Weather courtesy of forecast.io.

Closest aviation weather report (METAR) to Bay d'Espoir Airport

Closest report is St Pierre Airport, 72.9 nm (135.1 km) S. Retrieved 2020/10/25 21:00 UTC (2 hours ago):

LFVP 252100Z 31027G39KT 9999 FEW013 06/02 Q1011 NOSIG

Closest aviation forecast (TAF) to Bay d'Espoir Airport

Closest forecast is St Pierre Airport, 72.9 nm (135.1 km) S. Retrieved 2020/10/25 18:00 UTC (5 hours ago):

TAF LFVP 251700Z 2518/2603 30030G40KT 9999 FEW020